sensor_id;sensor_type;location;lat;lon;timestamp;P1;durP1;ratioP1;P2;durP2;ratioP2
60436;SDS011;46289;51.992;4.498;2023-06-22T00:01:20;30.92;;;16.50;;
60436;SDS011;46289;51.992;4.498;2023-06-22T00:03:28;32.33;;;16.75;;
60436;SDS011;46289;51.992;4.498;2023-06-22T00:05:33;35.70;;;17.08;;
60436;SDS011;46289;51.992;4.498;2023-06-22T00:07:41;33.47;;;15.57;;
60436;SDS011;46289;51.992;4.498;2023-06-22T00:09:46;28.15;;;14.40;;
60436;SDS011;46289;51.992;4.498;2023-06-22T00:11:51;32.30;;;16.15;;
60436;SDS011;46289;51.992;4.498;2023-06-22T00:13:56;33.85;;;15.98;;
60436;SDS011;46289;51.992;4.498;2023-06-22T00:16:05;33.05;;;15.30;;
60436;SDS011;46289;51.992;4.498;2023-06-22T00:18:10;34.47;;;17.67;;
60436;SDS011;46289;51.992;4.498;2023-06-22T00:20:15;32.65;;;16.77;;
60436;SDS011;46289;51.992;4.498;2023-06-22T00:22:20;34.20;;;16.48;;
60436;SDS011;46289;51.992;4.498;2023-06-22T00:24:33;35.47;;;17.45;;
60436;SDS011;46289;51.992;4.498;2023-06-22T00:26:38;36.67;;;16.20;;
60436;SDS011;46289;51.992;4.498;2023-06-22T00:28:43;36.38;;;17.77;;
60436;SDS011;46289;51.992;4.498;2023-06-22T00:30:48;38.65;;;17.38;;
60436;SDS011;46289;51.992;4.498;2023-06-22T00:32:58;45.40;;;18.33;;
60436;SDS011;46289;51.992;4.498;2023-06-22T00:35:04;37.63;;;18.00;;
60436;SDS011;46289;51.992;4.498;2023-06-22T00:37:10;39.22;;;18.58;;
60436;SDS011;46289;51.992;4.498;2023-06-22T00:39:16;41.67;;;20.33;;
60436;SDS011;46289;51.992;4.498;2023-06-22T00:41:23;37.58;;;17.48;;
60436;SDS011;46289;51.992;4.498;2023-06-22T00:43:30;38.65;;;17.95;;
60436;SDS011;46289;51.992;4.498;2023-06-22T00:45:35;39.58;;;19.98;;
60436;SDS011;46289;51.992;4.498;2023-06-22T00:47:40;40.92;;;19.50;;
60436;SDS011;46289;51.992;4.498;2023-06-22T00:49:45;46.13;;;21.30;;
60436;SDS011;46289;51.992;4.498;2023-06-22T00:51:53;43.13;;;20.70;;
60436;SDS011;46289;51.992;4.498;2023-06-22T00:54:00;43.08;;;19.27;;
60436;SDS011;46289;51.992;4.498;2023-06-22T00:56:06;41.95;;;20.17;;
60436;SDS011;46289;51.992;4.498;2023-06-22T00:58:17;48.28;;;22.05;;
60436;SDS011;46289;51.992;4.498;2023-06-22T01:00:24;44.75;;;21.17;;
60436;SDS011;46289;51.992;4.498;2023-06-22T01:02:32;36.00;;;19.05;;
60436;SDS011;46289;51.992;4.498;2023-06-22T01:04:38;45.22;;;20.15;;
60436;SDS011;46289;51.992;4.498;2023-06-22T01:06:45;49.15;;;22.48;;
60436;SDS011;46289;51.992;4.498;2023-06-22T01:09:02;44.20;;;19.65;;
60436;SDS011;46289;51.992;4.498;2023-06-22T01:11:16;45.78;;;20.58;;
60436;SDS011;46289;51.992;4.498;2023-06-22T01:13:29;49.22;;;21.60;;
60436;SDS011;46289;51.992;4.498;2023-06-22T01:15:39;47.28;;;21.02;;
60436;SDS011;46289;51.992;4.498;2023-06-22T01:17:48;52.05;;;21.45;;
60436;SDS011;46289;51.992;4.498;2023-06-22T01:20:00;45.15;;;21.00;;
60436;SDS011;46289;51.992;4.498;2023-06-22T01:22:08;50.03;;;21.80;;
60436;SDS011;46289;51.992;4.498;2023-06-22T01:24:18;46.35;;;22.27;;
60436;SDS011;46289;51.992;4.498;2023-06-22T01:26:32;55.22;;;23.98;;
60436;SDS011;46289;51.992;4.498;2023-06-22T01:28:45;46.85;;;21.33;;
60436;SDS011;46289;51.992;4.498;2023-06-22T01:30:51;52.75;;;22.13;;
60436;SDS011;46289;51.992;4.498;2023-06-22T01:33:08;50.72;;;21.85;;
60436;SDS011;46289;51.992;4.498;2023-06-22T01:35:16;50.90;;;22.50;;
60436;SDS011;46289;51.992;4.498;2023-06-22T01:37:21;52.13;;;22.63;;
60436;SDS011;46289;51.992;4.498;2023-06-22T01:39:27;54.65;;;23.40;;
60436;SDS011;46289;51.992;4.498;2023-06-22T01:41:35;51.97;;;21.67;;
60436;SDS011;46289;51.992;4.498;2023-06-22T01:43:47;52.40;;;23.42;;
60436;SDS011;46289;51.992;4.498;2023-06-22T01:45:54;49.53;;;20.60;;
60436;SDS011;46289;51.992;4.498;2023-06-22T01:47:59;51.10;;;21.45;;
60436;SDS011;46289;51.992;4.498;2023-06-22T01:50:05;47.83;;;21.38;;
60436;SDS011;46289;51.992;4.498;2023-06-22T01:52:11;54.08;;;23.05;;
60436;SDS011;46289;51.992;4.498;2023-06-22T01:54:16;59.78;;;23.73;;
60436;SDS011;46289;51.992;4.498;2023-06-22T01:56:22;51.63;;;22.05;;
60436;SDS011;46289;51.992;4.498;2023-06-22T01:58:29;42.67;;;20.27;;
60436;SDS011;46289;51.992;4.498;2023-06-22T02:00:37;50.70;;;23.45;;
60436;SDS011;46289;51.992;4.498;2023-06-22T02:02:47;42.75;;;19.80;;
60436;SDS011;46289;51.992;4.498;2023-06-22T02:04:59;51.95;;;22.92;;
60436;SDS011;46289;51.992;4.498;2023-06-22T02:07:09;59.05;;;23.88;;
60436;SDS011;46289;51.992;4.498;2023-06-22T02:09:18;45.17;;;21.27;;
60436;SDS011;46289;51.992;4.498;2023-06-22T02:11:28;52.63;;;23.08;;
60436;SDS011;46289;51.992;4.498;2023-06-22T02:13:35;49.40;;;20.92;;
60436;SDS011;46289;51.992;4.498;2023-06-22T02:15:47;54.55;;;24.05;;
60436;SDS011;46289;51.992;4.498;2023-06-22T02:17:52;59.28;;;22.73;;
60436;SDS011;46289;51.992;4.498;2023-06-22T02:20:02;52.35;;;23.33;;
60436;SDS011;46289;51.992;4.498;2023-06-22T02:22:10;57.10;;;24.63;;
60436;SDS011;46289;51.992;4.498;2023-06-22T02:24:16;52.55;;;22.92;;
60436;SDS011;46289;51.992;4.498;2023-06-22T02:26:21;52.30;;;23.08;;
60436;SDS011;46289;51.992;4.498;2023-06-22T02:28:28;55.08;;;21.23;;
60436;SDS011;46289;51.992;4.498;2023-06-22T02:30:33;50.28;;;22.02;;
60436;SDS011;46289;51.992;4.498;2023-06-22T02:32:41;54.17;;;22.90;;
60436;SDS011;46289;51.992;4.498;2023-06-22T02:34:46;56.03;;;24.98;;
60436;SDS011;46289;51.992;4.498;2023-06-22T02:36:51;58.85;;;23.33;;
60436;SDS011;46289;51.992;4.498;2023-06-22T02:39:00;61.53;;;25.90;;
60436;SDS011;46289;51.992;4.498;2023-06-22T02:41:06;57.50;;;24.02;;
60436;SDS011;46289;51.992;4.498;2023-06-22T02:43:14;57.55;;;25.35;;
60436;SDS011;46289;51.992;4.498;2023-06-22T02:45:20;58.60;;;24.58;;
60436;SDS011;46289;51.992;4.498;2023-06-22T02:47:25;66.10;;;25.23;;
60436;SDS011;46289;51.992;4.498;2023-06-22T02:49:33;67.00;;;28.70;;
60436;SDS011;46289;51.992;4.498;2023-06-22T02:51:38;58.53;;;25.25;;
60436;SDS011;46289;51.992;4.498;2023-06-22T02:53:44;66.55;;;28.20;;
60436;SDS011;46289;51.992;4.498;2023-06-22T02:55:50;62.60;;;27.63;;
60436;SDS011;46289;51.992;4.498;2023-06-22T02:57:55;63.47;;;26.08;;
60436;SDS011;46289;51.992;4.498;2023-06-22T03:00:02;68.05;;;27.60;;
60436;SDS011;46289;51.992;4.498;2023-06-22T03:02:20;69.00;;;27.50;;
60436;SDS011;46289;51.992;4.498;2023-06-22T03:04:28;68.50;;;26.13;;
60436;SDS011;46289;51.992;4.498;2023-06-22T03:06:36;64.40;;;28.65;;
60436;SDS011;46289;51.992;4.498;2023-06-22T03:08:42;72.95;;;27.40;;
60436;SDS011;46289;51.992;4.498;2023-06-22T03:10:47;66.95;;;27.55;;
60436;SDS011;46289;51.992;4.498;2023-06-22T03:12:52;74.93;;;28.42;;
60436;SDS011;46289;51.992;4.498;2023-06-22T03:14:59;66.65;;;27.48;;
60436;SDS011;46289;51.992;4.498;2023-06-22T03:17:05;66.63;;;27.88;;
60436;SDS011;46289;51.992;4.498;2023-06-22T03:19:10;71.65;;;28.00;;
60436;SDS011;46289;51.992;4.498;2023-06-22T03:21:15;81.10;;;31.33;;
60436;SDS011;46289;51.992;4.498;2023-06-22T03:23:27;66.50;;;29.67;;
60436;SDS011;46289;51.992;4.498;2023-06-22T03:25:32;69.30;;;29.95;;
60436;SDS011;46289;51.992;4.498;2023-06-22T03:27:38;79.00;;;32.20;;
60436;SDS011;46289;51.992;4.498;2023-06-22T03:29:43;83.28;;;33.53;;
60436;SDS011;46289;51.992;4.498;2023-06-22T03:31:48;77.25;;;33.35;;
60436;SDS011;46289;51.992;4.498;2023-06-22T03:33:53;74.53;;;31.08;;
60436;SDS011;46289;51.992;4.498;2023-06-22T03:36:00;79.80;;;32.10;;
60436;SDS011;46289;51.992;4.498;2023-06-22T03:38:05;84.07;;;32.17;;
60436;SDS011;46289;51.992;4.498;2023-06-22T03:40:13;75.82;;;30.00;;
60436;SDS011;46289;51.992;4.498;2023-06-22T03:42:18;72.40;;;30.90;;
60436;SDS011;46289;51.992;4.498;2023-06-22T03:44:24;83.18;;;31.80;;
60436;SDS011;46289;51.992;4.498;2023-06-22T03:46:29;81.97;;;32.47;;
60436;SDS011;46289;51.992;4.498;2023-06-22T03:48:35;70.93;;;29.10;;
60436;SDS011;46289;51.992;4.498;2023-06-22T03:50:40;71.25;;;29.15;;
60436;SDS011;46289;51.992;4.498;2023-06-22T03:52:45;76.15;;;29.83;;
60436;SDS011;46289;51.992;4.498;2023-06-22T03:54:53;68.47;;;27.92;;
60436;SDS011;46289;51.992;4.498;2023-06-22T03:57:02;77.28;;;31.05;;
60436;SDS011;46289;51.992;4.498;2023-06-22T03:59:08;74.32;;;30.77;;
60436;SDS011;46289;51.992;4.498;2023-06-22T04:01:13;74.68;;;30.60;;
60436;SDS011;46289;51.992;4.498;2023-06-22T04:03:19;75.30;;;29.58;;
60436;SDS011;46289;51.992;4.498;2023-06-22T04:05:27;77.43;;;32.13;;
60436;SDS011;46289;51.992;4.498;2023-06-22T04:07:32;77.32;;;31.45;;
60436;SDS011;46289;51.992;4.498;2023-06-22T04:09:38;83.28;;;34.17;;
60436;SDS011;46289;51.992;4.498;2023-06-22T04:11:46;86.38;;;31.88;;
60436;SDS011;46289;51.992;4.498;2023-06-22T04:13:54;83.00;;;31.77;;
60436;SDS011;46289;51.992;4.498;2023-06-22T04:16:00;83.88;;;31.88;;
60436;SDS011;46289;51.992;4.498;2023-06-22T04:18:05;79.63;;;35.38;;
60436;SDS011;46289;51.992;4.498;2023-06-22T04:20:11;89.07;;;36.15;;
60436;SDS011;46289;51.992;4.498;2023-06-22T04:22:16;91.43;;;35.42;;
60436;SDS011;46289;51.992;4.498;2023-06-22T04:24:24;74.03;;;32.75;;
60436;SDS011;46289;51.992;4.498;2023-06-22T04:26:29;79.43;;;32.42;;
60436;SDS011;46289;51.992;4.498;2023-06-22T04:28:38;80.07;;;33.00;;
60436;SDS011;46289;51.992;4.498;2023-06-22T04:30:46;76.80;;;31.23;;
60436;SDS011;46289;51.992;4.498;2023-06-22T04:32:52;87.47;;;34.20;;
60436;SDS011;46289;51.992;4.498;2023-06-22T04:35:00;86.05;;;32.72;;
60436;SDS011;46289;51.992;4.498;2023-06-22T04:37:06;77.35;;;30.73;;
60436;SDS011;46289;51.992;4.498;2023-06-22T04:39:17;74.20;;;31.75;;
60436;SDS011;46289;51.992;4.498;2023-06-22T04:41:22;80.80;;;32.50;;
60436;SDS011;46289;51.992;4.498;2023-06-22T04:43:28;77.63;;;31.50;;
60436;SDS011;46289;51.992;4.498;2023-06-22T04:45:34;79.25;;;33.92;;
60436;SDS011;46289;51.992;4.498;2023-06-22T04:47:43;78.47;;;33.05;;
60436;SDS011;46289;51.992;4.498;2023-06-22T04:49:48;78.32;;;32.88;;
60436;SDS011;46289;51.992;4.498;2023-06-22T04:51:53;80.97;;;33.60;;
60436;SDS011;46289;51.992;4.498;2023-06-22T04:53:59;71.13;;;31.65;;
60436;SDS011;46289;51.992;4.498;2023-06-22T04:56:07;74.13;;;32.92;;
60436;SDS011;46289;51.992;4.498;2023-06-22T04:58:13;66.50;;;29.38;;
60436;SDS011;46289;51.992;4.498;2023-06-22T05:00:18;69.32;;;31.58;;
60436;SDS011;46289;51.992;4.498;2023-06-22T05:02:29;73.00;;;29.80;;
60436;SDS011;46289;51.992;4.498;2023-06-22T05:04:37;64.15;;;27.83;;
60436;SDS011;46289;51.992;4.498;2023-06-22T05:06:43;67.78;;;29.25;;
60436;SDS011;46289;51.992;4.498;2023-06-22T05:08:48;61.28;;;26.73;;
60436;SDS011;46289;51.992;4.498;2023-06-22T05:10:53;62.10;;;30.50;;
60436;SDS011;46289;51.992;4.498;2023-06-22T05:13:06;54.35;;;26.33;;
60436;SDS011;46289;51.992;4.498;2023-06-22T05:15:11;63.40;;;25.98;;
60436;SDS011;46289;51.992;4.498;2023-06-22T05:17:17;61.78;;;26.25;;
60436;SDS011;46289;51.992;4.498;2023-06-22T05:19:22;56.50;;;25.38;;
60436;SDS011;46289;51.992;4.498;2023-06-22T05:23:43;45.55;;;22.75;;
60436;SDS011;46289;51.992;4.498;2023-06-22T05:25:48;43.00;;;21.80;;
60436;SDS011;46289;51.992;4.498;2023-06-22T05:27:53;53.10;;;23.55;;
60436;SDS011;46289;51.992;4.498;2023-06-22T05:29:59;46.20;;;22.05;;
60436;SDS011;46289;51.992;4.498;2023-06-22T05:32:05;43.65;;;20.50;;
60436;SDS011;46289;51.992;4.498;2023-06-22T05:34:11;47.95;;;21.50;;
60436;SDS011;46289;51.992;4.498;2023-06-22T05:36:16;45.95;;;22.98;;
60436;SDS011;46289;51.992;4.498;2023-06-22T05:38:25;44.45;;;22.25;;
60436;SDS011;46289;51.992;4.498;2023-06-22T05:40:32;40.33;;;20.50;;
60436;SDS011;46289;51.992;4.498;2023-06-22T05:42:37;45.75;;;20.02;;
60436;SDS011;46289;51.992;4.498;2023-06-22T05:44:45;38.28;;;20.65;;
60436;SDS011;46289;51.992;4.498;2023-06-22T05:46:50;43.20;;;20.88;;
60436;SDS011;46289;51.992;4.498;2023-06-22T05:48:55;38.67;;;19.08;;
60436;SDS011;46289;51.992;4.498;2023-06-22T05:51:01;40.83;;;19.95;;
60436;SDS011;46289;51.992;4.498;2023-06-22T05:53:07;40.47;;;19.40;;
60436;SDS011;46289;51.992;4.498;2023-06-22T05:55:15;36.15;;;19.80;;
60436;SDS011;46289;51.992;4.498;2023-06-22T05:57:20;42.45;;;19.80;;
60436;SDS011;46289;51.992;4.498;2023-06-22T05:59:27;40.40;;;19.80;;
60436;SDS011;46289;51.992;4.498;2023-06-22T06:01:35;35.10;;;19.00;;
60436;SDS011;46289;51.992;4.498;2023-06-22T06:03:41;41.70;;;20.40;;
60436;SDS011;46289;51.992;4.498;2023-06-22T06:05:47;43.60;;;21.00;;
60436;SDS011;46289;51.992;4.498;2023-06-22T06:07:52;44.72;;;21.08;;
60436;SDS011;46289;51.992;4.498;2023-06-22T06:09:58;42.88;;;20.55;;
60436;SDS011;46289;51.992;4.498;2023-06-22T06:12:06;42.22;;;20.90;;
60436;SDS011;46289;51.992;4.498;2023-06-22T06:14:12;43.90;;;21.45;;
60436;SDS011;46289;51.992;4.498;2023-06-22T06:16:19;37.17;;;20.08;;
60436;SDS011;46289;51.992;4.498;2023-06-22T06:18:27;40.00;;;19.40;;
60436;SDS011;46289;51.992;4.498;2023-06-22T06:20:35;35.95;;;18.60;;
60436;SDS011;46289;51.992;4.498;2023-06-22T06:22:40;39.95;;;21.08;;
60436;SDS011;46289;51.992;4.498;2023-06-22T06:24:45;37.53;;;20.67;;
60436;SDS011;46289;51.992;4.498;2023-06-22T06:26:51;36.30;;;20.20;;
60436;SDS011;46289;51.992;4.498;2023-06-22T06:29:01;37.88;;;19.83;;
60436;SDS011;46289;51.992;4.498;2023-06-22T06:31:07;37.50;;;19.48;;
60436;SDS011;46289;51.992;4.498;2023-06-22T06:33:17;34.38;;;19.05;;
60436;SDS011;46289;51.992;4.498;2023-06-22T06:35:27;39.85;;;19.63;;
60436;SDS011;46289;51.992;4.498;2023-06-22T06:37:35;41.03;;;20.77;;
60436;SDS011;46289;51.992;4.498;2023-06-22T06:39:41;40.67;;;20.27;;
60436;SDS011;46289;51.992;4.498;2023-06-22T06:41:46;34.58;;;19.55;;
60436;SDS011;46289;51.992;4.498;2023-06-22T06:43:51;36.55;;;19.98;;
60436;SDS011;46289;51.992;4.498;2023-06-22T06:45:59;37.97;;;18.65;;
60436;SDS011;46289;51.992;4.498;2023-06-22T06:48:05;38.40;;;18.38;;
60436;SDS011;46289;51.992;4.498;2023-06-22T06:50:11;37.25;;;17.83;;
60436;SDS011;46289;51.992;4.498;2023-06-22T06:52:16;37.42;;;19.95;;
60436;SDS011;46289;51.992;4.498;2023-06-22T06:54:22;34.28;;;17.20;;
60436;SDS011;46289;51.992;4.498;2023-06-22T06:56:28;31.33;;;17.63;;
60436;SDS011;46289;51.992;4.498;2023-06-22T06:58:34;34.45;;;17.77;;
60436;SDS011;46289;51.992;4.498;2023-06-22T07:00:39;34.67;;;17.15;;
60436;SDS011;46289;51.992;4.498;2023-06-22T07:02:47;30.40;;;16.52;;
60436;SDS011;46289;51.992;4.498;2023-06-22T07:04:53;31.17;;;16.30;;
60436;SDS011;46289;51.992;4.498;2023-06-22T07:07:01;27.67;;;15.57;;
60436;SDS011;46289;51.992;4.498;2023-06-22T07:09:06;25.17;;;15.60;;
60436;SDS011;46289;51.992;4.498;2023-06-22T07:11:11;26.40;;;14.90;;
60436;SDS011;46289;51.992;4.498;2023-06-22T07:13:16;26.02;;;13.20;;
60436;SDS011;46289;51.992;4.498;2023-06-22T07:15:21;24.70;;;12.80;;
60436;SDS011;46289;51.992;4.498;2023-06-22T07:17:29;21.75;;;12.65;;
60436;SDS011;46289;51.992;4.498;2023-06-22T07:19:37;26.05;;;12.65;;
60436;SDS011;46289;51.992;4.498;2023-06-22T07:21:44;24.90;;;12.70;;
60436;SDS011;46289;51.992;4.498;2023-06-22T07:23:49;24.92;;;13.30;;
60436;SDS011;46289;51.992;4.498;2023-06-22T07:25:55;19.88;;;11.63;;
60436;SDS011;46289;51.992;4.498;2023-06-22T07:28:04;24.58;;;12.35;;
60436;SDS011;46289;51.992;4.498;2023-06-22T07:30:10;19.08;;;9.95;;
60436;SDS011;46289;51.992;4.498;2023-06-22T07:32:16;16.95;;;9.40;;
60436;SDS011;46289;51.992;4.498;2023-06-22T07:34:22;16.75;;;9.18;;
60436;SDS011;46289;51.992;4.498;2023-06-22T07:36:31;15.93;;;9.00;;
60436;SDS011;46289;51.992;4.498;2023-06-22T07:38:37;17.35;;;10.07;;
60436;SDS011;46289;51.992;4.498;2023-06-22T07:40:43;18.27;;;9.73;;
60436;SDS011;46289;51.992;4.498;2023-06-22T07:42:48;16.30;;;8.73;;
60436;SDS011;46289;51.992;4.498;2023-06-22T07:44:54;17.23;;;10.20;;
60436;SDS011;46289;51.992;4.498;2023-06-22T07:47:00;17.67;;;10.50;;
60436;SDS011;46289;51.992;4.498;2023-06-22T07:49:05;13.15;;;7.75;;
60436;SDS011;46289;51.992;4.498;2023-06-22T07:51:10;15.05;;;7.90;;
60436;SDS011;46289;51.992;4.498;2023-06-22T07:53:18;12.88;;;7.20;;
60436;SDS011;46289;51.992;4.498;2023-06-22T07:55:24;14.85;;;7.90;;
60436;SDS011;46289;51.992;4.498;2023-06-22T07:57:30;14.43;;;6.88;;
60436;SDS011;46289;51.992;4.498;2023-06-22T07:59:38;13.57;;;7.40;;
60436;SDS011;46289;51.992;4.498;2023-06-22T08:01:42;14.18;;;6.57;;
60436;SDS011;46289;51.992;4.498;2023-06-22T08:03:50;14.27;;;7.57;;
60436;SDS011;46289;51.992;4.498;2023-06-22T08:05:56;12.80;;;6.25;;
60436;SDS011;46289;51.992;4.498;2023-06-22T08:08:00;12.43;;;6.70;;
60436;SDS011;46289;51.992;4.498;2023-06-22T08:10:09;13.60;;;7.15;;
60436;SDS011;46289;51.992;4.498;2023-06-22T08:12:15;15.40;;;7.40;;
60436;SDS011;46289;51.992;4.498;2023-06-22T08:14:20;16.45;;;7.30;;
60436;SDS011;46289;51.992;4.498;2023-06-22T08:16:25;13.07;;;7.13;;
60436;SDS011;46289;51.992;4.498;2023-06-22T08:18:30;12.55;;;7.15;;
60436;SDS011;46289;51.992;4.498;2023-06-22T08:20:35;13.73;;;7.00;;
60436;SDS011;46289;51.992;4.498;2023-06-22T08:22:41;13.50;;;7.10;;
60436;SDS011;46289;51.992;4.498;2023-06-22T08:24:49;14.75;;;8.10;;
60436;SDS011;46289;51.992;4.498;2023-06-22T08:26:57;14.98;;;6.57;;
60436;SDS011;46289;51.992;4.498;2023-06-22T08:29:03;15.95;;;7.85;;
60436;SDS011;46289;51.992;4.498;2023-06-22T08:31:08;12.80;;;7.22;;
60436;SDS011;46289;51.992;4.498;2023-06-22T08:33:15;11.18;;;6.65;;
60436;SDS011;46289;51.992;4.498;2023-06-22T08:35:28;11.65;;;7.00;;
60436;SDS011;46289;51.992;4.498;2023-06-22T08:37:34;12.45;;;6.28;;
60436;SDS011;46289;51.992;4.498;2023-06-22T08:39:41;10.38;;;6.07;;
60436;SDS011;46289;51.992;4.498;2023-06-22T08:41:45;9.60;;;5.47;;
60436;SDS011;46289;51.992;4.498;2023-06-22T08:43:53;9.93;;;5.60;;
60436;SDS011;46289;51.992;4.498;2023-06-22T08:46:00;9.48;;;5.07;;
60436;SDS011;46289;51.992;4.498;2023-06-22T08:48:05;13.50;;;6.35;;
60436;SDS011;46289;51.992;4.498;2023-06-22T08:50:10;10.85;;;6.03;;
60436;SDS011;46289;51.992;4.498;2023-06-22T08:52:17;12.85;;;6.20;;
60436;SDS011;46289;51.992;4.498;2023-06-22T08:54:22;11.63;;;6.72;;
60436;SDS011;46289;51.992;4.498;2023-06-22T08:56:30;12.50;;;6.50;;
60436;SDS011;46289;51.992;4.498;2023-06-22T08:58:35;13.30;;;7.03;;
60436;SDS011;46289;51.992;4.498;2023-06-22T09:00:43;12.75;;;7.10;;
60436;SDS011;46289;51.992;4.498;2023-06-22T09:02:48;14.88;;;7.57;;
60436;SDS011;46289;51.992;4.498;2023-06-22T09:04:53;16.48;;;9.13;;
60436;SDS011;46289;51.992;4.498;2023-06-22T09:06:59;15.30;;;9.23;;
60436;SDS011;46289;51.992;4.498;2023-06-22T09:09:04;14.23;;;8.82;;
60436;SDS011;46289;51.992;4.498;2023-06-22T09:11:09;15.75;;;8.50;;
60436;SDS011;46289;51.992;4.498;2023-06-22T09:13:14;16.60;;;10.27;;
60436;SDS011;46289;51.992;4.498;2023-06-22T09:15:19;18.73;;;11.25;;
60436;SDS011;46289;51.992;4.498;2023-06-22T09:17:26;23.35;;;11.77;;
60436;SDS011;46289;51.992;4.498;2023-06-22T09:19:31;16.50;;;10.63;;
60436;SDS011;46289;51.992;4.498;2023-06-22T09:21:36;16.42;;;9.65;;
60436;SDS011;46289;51.992;4.498;2023-06-22T09:23:42;17.92;;;11.25;;
60436;SDS011;46289;51.992;4.498;2023-06-22T09:25:52;16.88;;;9.38;;
60436;SDS011;46289;51.992;4.498;2023-06-22T09:27:58;18.63;;;10.35;;
60436;SDS011;46289;51.992;4.498;2023-06-22T09:30:04;18.85;;;11.70;;
60436;SDS011;46289;51.992;4.498;2023-06-22T09:32:10;17.48;;;10.82;;
60436;SDS011;46289;51.992;4.498;2023-06-22T09:34:17;16.63;;;7.85;;
60436;SDS011;46289;51.992;4.498;2023-06-22T09:36:23;15.85;;;9.02;;
60436;SDS011;46289;51.992;4.498;2023-06-22T09:38:32;13.32;;;7.63;;
60436;SDS011;46289;51.992;4.498;2023-06-22T09:40:39;15.13;;;9.90;;
60436;SDS011;46289;51.992;4.498;2023-06-22T09:42:44;15.88;;;10.98;;
60436;SDS011;46289;51.992;4.498;2023-06-22T09:44:49;17.48;;;9.25;;
60436;SDS011;46289;51.992;4.498;2023-06-22T09:46:54;15.38;;;9.20;;
60436;SDS011;46289;51.992;4.498;2023-06-22T09:49:00;15.82;;;10.45;;
60436;SDS011;46289;51.992;4.498;2023-06-22T09:51:09;17.20;;;11.25;;
60436;SDS011;46289;51.992;4.498;2023-06-22T09:53:16;16.25;;;10.50;;
60436;SDS011;46289;51.992;4.498;2023-06-22T09:55:22;14.98;;;9.65;;
60436;SDS011;46289;51.992;4.498;2023-06-22T09:57:28;16.63;;;10.20;;
60436;SDS011;46289;51.992;4.498;2023-06-22T09:59:33;17.95;;;11.45;;
60436;SDS011;46289;51.992;4.498;2023-06-22T10:01:38;18.30;;;10.40;;
60436;SDS011;46289;51.992;4.498;2023-06-22T10:03:44;18.73;;;11.20;;
60436;SDS011;46289;51.992;4.498;2023-06-22T10:05:49;18.08;;;10.13;;
60436;SDS011;46289;51.992;4.498;2023-06-22T10:07:58;15.85;;;8.25;;
60436;SDS011;46289;51.992;4.498;2023-06-22T10:10:04;14.80;;;7.80;;
60436;SDS011;46289;51.992;4.498;2023-06-22T10:12:09;15.18;;;9.68;;
60436;SDS011;46289;51.992;4.498;2023-06-22T10:14:15;15.75;;;10.27;;
60436;SDS011;46289;51.992;4.498;2023-06-22T10:16:20;15.02;;;8.88;;
60436;SDS011;46289;51.992;4.498;2023-06-22T10:18:25;17.83;;;9.20;;
60436;SDS011;46289;51.992;4.498;2023-06-22T10:20:30;14.45;;;8.93;;
60436;SDS011;46289;51.992;4.498;2023-06-22T10:22:36;17.85;;;9.38;;
60436;SDS011;46289;51.992;4.498;2023-06-22T10:24:47;17.65;;;10.38;;
60436;SDS011;46289;51.992;4.498;2023-06-22T10:26:53;15.77;;;10.35;;
60436;SDS011;46289;51.992;4.498;2023-06-22T10:28:59;16.02;;;9.93;;
60436;SDS011;46289;51.992;4.498;2023-06-22T10:31:20;14.73;;;9.77;;
60436;SDS011;46289;51.992;4.498;2023-06-22T10:33:25;16.00;;;9.85;;
60436;SDS011;46289;51.992;4.498;2023-06-22T10:35:31;13.90;;;8.90;;
60436;SDS011;46289;51.992;4.498;2023-06-22T10:37:36;17.55;;;11.00;;
60436;SDS011;46289;51.992;4.498;2023-06-22T10:39:41;19.33;;;11.30;;
60436;SDS011;46289;51.992;4.498;2023-06-22T10:41:52;16.35;;;10.15;;
60436;SDS011;46289;51.992;4.498;2023-06-22T10:44:00;16.92;;;10.93;;
60436;SDS011;46289;51.992;4.498;2023-06-22T10:46:05;20.02;;;13.23;;
60436;SDS011;46289;51.992;4.498;2023-06-22T10:48:10;20.30;;;13.25;;
60436;SDS011;46289;51.992;4.498;2023-06-22T10:50:16;17.50;;;12.82;;
60436;SDS011;46289;51.992;4.498;2023-06-22T10:52:21;18.50;;;13.20;;
60436;SDS011;46289;51.992;4.498;2023-06-22T10:54:27;19.52;;;13.18;;
60436;SDS011;46289;51.992;4.498;2023-06-22T10:56:34;18.52;;;11.75;;
60436;SDS011;46289;51.992;4.498;2023-06-22T10:58:39;15.15;;;10.40;;
60436;SDS011;46289;51.992;4.498;2023-06-22T11:00:44;15.38;;;10.07;;
60436;SDS011;46289;51.992;4.498;2023-06-22T11:02:49;16.27;;;11.55;;
60436;SDS011;46289;51.992;4.498;2023-06-22T11:04:54;15.02;;;9.95;;
60436;SDS011;46289;51.992;4.498;2023-06-22T11:07:02;16.58;;;10.68;;
60436;SDS011;46289;51.992;4.498;2023-06-22T11:09:07;14.75;;;11.23;;
60436;SDS011;46289;51.992;4.498;2023-06-22T11:11:17;17.90;;;10.50;;
60436;SDS011;46289;51.992;4.498;2023-06-22T11:13:25;18.13;;;10.32;;
60436;SDS011;46289;51.992;4.498;2023-06-22T11:15:30;18.13;;;10.15;;
60436;SDS011;46289;51.992;4.498;2023-06-22T11:17:36;17.27;;;10.38;;
60436;SDS011;46289;51.992;4.498;2023-06-22T11:19:41;14.20;;;9.75;;
60436;SDS011;46289;51.992;4.498;2023-06-22T11:21:49;17.02;;;9.57;;
60436;SDS011;46289;51.992;4.498;2023-06-22T11:23:54;13.73;;;7.78;;
60436;SDS011;46289;51.992;4.498;2023-06-22T11:26:01;14.85;;;7.70;;
60436;SDS011;46289;51.992;4.498;2023-06-22T11:28:07;16.10;;;12.02;;
60436;SDS011;46289;51.992;4.498;2023-06-22T11:30:15;17.92;;;12.35;;
60436;SDS011;46289;51.992;4.498;2023-06-22T11:32:22;19.63;;;12.65;;
60436;SDS011;46289;51.992;4.498;2023-06-22T11:34:27;16.65;;;11.05;;
60436;SDS011;46289;51.992;4.498;2023-06-22T11:36:33;14.43;;;10.00;;
60436;SDS011;46289;51.992;4.498;2023-06-22T11:38:38;16.20;;;9.00;;
60436;SDS011;46289;51.992;4.498;2023-06-22T11:40:43;13.55;;;8.43;;
60436;SDS011;46289;51.992;4.498;2023-06-22T11:42:48;16.10;;;9.68;;
60436;SDS011;46289;51.992;4.498;2023-06-22T11:44:55;15.35;;;9.57;;
60436;SDS011;46289;51.992;4.498;2023-06-22T11:47:03;16.52;;;11.02;;
60436;SDS011;46289;51.992;4.498;2023-06-22T11:49:08;17.95;;;11.75;;
60436;SDS011;46289;51.992;4.498;2023-06-22T11:51:14;17.80;;;12.05;;
60436;SDS011;46289;51.992;4.498;2023-06-22T11:53:20;17.30;;;12.68;;
60436;SDS011;46289;51.992;4.498;2023-06-22T11:55:25;18.83;;;13.18;;
60436;SDS011;46289;51.992;4.498;2023-06-22T11:57:32;19.45;;;11.38;;
60436;SDS011;46289;51.992;4.498;2023-06-22T11:59:37;17.00;;;11.50;;
60436;SDS011;46289;51.992;4.498;2023-06-22T12:01:42;22.48;;;12.70;;
60436;SDS011;46289;51.992;4.498;2023-06-22T12:03:50;19.48;;;12.95;;
60436;SDS011;46289;51.992;4.498;2023-06-22T12:05:56;21.52;;;12.73;;
60436;SDS011;46289;51.992;4.498;2023-06-22T12:08:01;18.60;;;12.85;;
60436;SDS011;46289;51.992;4.498;2023-06-22T12:10:06;23.90;;;15.40;;
60436;SDS011;46289;51.992;4.498;2023-06-22T12:12:12;20.45;;;13.27;;
60436;SDS011;46289;51.992;4.498;2023-06-22T12:14:17;23.35;;;13.82;;
60436;SDS011;46289;51.992;4.498;2023-06-22T12:16:25;22.70;;;13.65;;
60436;SDS011;46289;51.992;4.498;2023-06-22T12:18:31;20.35;;;13.07;;
60436;SDS011;46289;51.992;4.498;2023-06-22T12:20:39;19.83;;;13.10;;
60436;SDS011;46289;51.992;4.498;2023-06-22T12:22:44;19.45;;;13.05;;
60436;SDS011;46289;51.992;4.498;2023-06-22T12:24:51;18.70;;;12.80;;